sensor_id;sensor_type;location;lat;lon;timestamp;temperature;humidity
4081;DHT22;2055;50.074;8.436;2023-07-13T00:01:46;17.70;99.90
4081;DHT22;2055;50.074;8.436;2023-07-13T00:04:15;17.80;99.90
4081;DHT22;2055;50.074;8.436;2023-07-13T00:06:41;17.90;99.90
4081;DHT22;2055;50.074;8.436;2023-07-13T00:09:14;17.90;99.90
4081;DHT22;2055;50.074;8.436;2023-07-13T00:11:41;17.90;99.90
4081;DHT22;2055;50.074;8.436;2023-07-13T00:14:08;17.90;99.90
4081;DHT22;2055;50.074;8.436;2023-07-13T00:16:35;17.90;99.90
4081;DHT22;2055;50.074;8.436;2023-07-13T00:19:01;18.10;99.90
4081;DHT22;2055;50.074;8.436;2023-07-13T00:21:27;18.00;99.90
4081;DHT22;2055;50.074;8.436;2023-07-13T00:23:53;18.70;99.90
4081;DHT22;2055;50.074;8.436;2023-07-13T00:26:18;17.00;99.90
4081;DHT22;2055;50.074;8.436;2023-07-13T00:28:44;18.20;99.90
4081;DHT22;2055;50.074;8.436;2023-07-13T00:31:12;18.10;99.90
4081;DHT22;2055;50.074;8.436;2023-07-13T00:33:41;17.90;99.90
4081;DHT22;2055;50.074;8.436;2023-07-13T00:36:08;18.10;99.90
4081;DHT22;2055;50.074;8.436;2023-07-13T00:38:34;18.10;99.90
4081;DHT22;2055;50.074;8.436;2023-07-13T00:41:00;19.70;99.90
4081;DHT22;2055;50.074;8.436;2023-07-13T00:43:27;21.40;99.90
4081;DHT22;2055;50.074;8.436;2023-07-13T00:46:10;18.20;99.90
4081;DHT22;2055;50.074;8.436;2023-07-13T00:48:37;18.20;99.90
4081;DHT22;2055;50.074;8.436;2023-07-13T00:51:09;18.10;99.90
4081;DHT22;2055;50.074;8.436;2023-07-13T00:53:35;19.30;99.90
4081;DHT22;2055;50.074;8.436;2023-07-13T00:56:01;20.20;99.90
4081;DHT22;2055;50.074;8.436;2023-07-13T00:58:28;18.00;99.90
4081;DHT22;2055;50.074;8.436;2023-07-13T01:00:57;18.00;99.90
4081;DHT22;2055;50.074;8.436;2023-07-13T01:03:22;18.10;99.90
4081;DHT22;2055;50.074;8.436;2023-07-13T01:05:49;19.70;99.90
4081;DHT22;2055;50.074;8.436;2023-07-13T01:08:15;18.10;99.90
4081;DHT22;2055;50.074;8.436;2023-07-13T01:10:42;18.10;99.90
4081;DHT22;2055;50.074;8.436;2023-07-13T01:13:15;18.10;99.90
4081;DHT22;2055;50.074;8.436;2023-07-13T01:15:45;18.10;99.90
4081;DHT22;2055;50.074;8.436;2023-07-13T01:18:14;18.50;99.90
4081;DHT22;2055;50.074;8.436;2023-07-13T01:20:40;18.20;99.90
4081;DHT22;2055;50.074;8.436;2023-07-13T01:23:11;18.20;99.90
4081;DHT22;2055;50.074;8.436;2023-07-13T01:25:38;17.70;99.90
4081;DHT22;2055;50.074;8.436;2023-07-13T01:28:05;17.50;99.90
4081;DHT22;2055;50.074;8.436;2023-07-13T01:30:30;17.90;99.90
4081;DHT22;2055;50.074;8.436;2023-07-13T01:32:58;17.80;99.90
4081;DHT22;2055;50.074;8.436;2023-07-13T01:35:24;17.40;99.90
4081;DHT22;2055;50.074;8.436;2023-07-13T01:37:51;19.60;99.90
4081;DHT22;2055;50.074;8.436;2023-07-13T01:40:20;20.10;99.90
4081;DHT22;2055;50.074;8.436;2023-07-13T01:42:46;18.90;99.90
4081;DHT22;2055;50.074;8.436;2023-07-13T01:45:11;18.40;99.90
4081;DHT22;2055;50.074;8.436;2023-07-13T01:47:37;17.30;99.90
4081;DHT22;2055;50.074;8.436;2023-07-13T01:50:03;17.20;99.90
4081;DHT22;2055;50.074;8.436;2023-07-13T01:52:29;18.60;99.90
4081;DHT22;2055;50.074;8.436;2023-07-13T01:54:54;17.20;99.90
4081;DHT22;2055;50.074;8.436;2023-07-13T01:57:20;17.00;99.90
4081;DHT22;2055;50.074;8.436;2023-07-13T01:59:46;17.10;99.90
4081;DHT22;2055;50.074;8.436;2023-07-13T02:02:11;17.10;99.90
4081;DHT22;2055;50.074;8.436;2023-07-13T02:04:37;17.10;99.90
4081;DHT22;2055;50.074;8.436;2023-07-13T02:07:03;18.00;99.90
4081;DHT22;2055;50.074;8.436;2023-07-13T02:09:28;17.10;99.90
4081;DHT22;2055;50.074;8.436;2023-07-13T02:11:54;17.00;99.90
4081;DHT22;2055;50.074;8.436;2023-07-13T02:14:20;16.90;99.90
4081;DHT22;2055;50.074;8.436;2023-07-13T02:16:45;17.00;99.90
4081;DHT22;2055;50.074;8.436;2023-07-13T02:19:11;17.00;99.90
4081;DHT22;2055;50.074;8.436;2023-07-13T02:21:36;18.20;99.90
4081;DHT22;2055;50.074;8.436;2023-07-13T02:24:02;17.30;99.90
4081;DHT22;2055;50.074;8.436;2023-07-13T02:26:28;17.40;99.90
4081;DHT22;2055;50.074;8.436;2023-07-13T02:28:53;17.70;99.90
4081;DHT22;2055;50.074;8.436;2023-07-13T02:31:19;17.60;99.90
4081;DHT22;2055;50.074;8.436;2023-07-13T02:33:46;17.30;99.90
4081;DHT22;2055;50.074;8.436;2023-07-13T02:36:12;19.90;99.90
4081;DHT22;2055;50.074;8.436;2023-07-13T02:38:37;17.20;99.90
4081;DHT22;2055;50.074;8.436;2023-07-13T02:41:05;17.50;99.90
4081;DHT22;2055;50.074;8.436;2023-07-13T02:43:31;17.80;99.90
4081;DHT22;2055;50.074;8.436;2023-07-13T02:45:59;17.10;99.90
4081;DHT22;2055;50.074;8.436;2023-07-13T02:48:30;17.20;99.90
4081;DHT22;2055;50.074;8.436;2023-07-13T02:50:55;16.70;99.90
4081;DHT22;2055;50.074;8.436;2023-07-13T02:53:21;16.70;99.90
4081;DHT22;2055;50.074;8.436;2023-07-13T02:55:46;16.60;99.90
4081;DHT22;2055;50.074;8.436;2023-07-13T02:58:13;16.50;99.90
4081;DHT22;2055;50.074;8.436;2023-07-13T03:00:51;16.50;99.90
4081;DHT22;2055;50.074;8.436;2023-07-13T03:03:18;16.40;99.90
4081;DHT22;2055;50.074;8.436;2023-07-13T03:05:44;16.30;99.90
4081;DHT22;2055;50.074;8.436;2023-07-13T03:08:14;16.30;99.90
4081;DHT22;2055;50.074;8.436;2023-07-13T03:10:43;16.40;99.90
4081;DHT22;2055;50.074;8.436;2023-07-13T03:13:09;16.50;99.90
4081;DHT22;2055;50.074;8.436;2023-07-13T03:15:34;19.60;99.90
4081;DHT22;2055;50.074;8.436;2023-07-13T03:18:00;16.70;99.90
4081;DHT22;2055;50.074;8.436;2023-07-13T03:20:25;16.70;99.90
4081;DHT22;2055;50.074;8.436;2023-07-13T03:22:51;16.10;99.90
4081;DHT22;2055;50.074;8.436;2023-07-13T03:25:17;16.60;99.90
4081;DHT22;2055;50.074;8.436;2023-07-13T03:27:42;16.60;99.90
4081;DHT22;2055;50.074;8.436;2023-07-13T03:30:11;16.20;99.90
4081;DHT22;2055;50.074;8.436;2023-07-13T03:32:38;16.30;99.90
4081;DHT22;2055;50.074;8.436;2023-07-13T03:35:04;16.20;99.90
4081;DHT22;2055;50.074;8.436;2023-07-13T03:37:29;16.10;99.90
4081;DHT22;2055;50.074;8.436;2023-07-13T03:39:55;16.20;99.90
4081;DHT22;2055;50.074;8.436;2023-07-13T03:42:20;18.40;99.90
4081;DHT22;2055;50.074;8.436;2023-07-13T03:44:46;16.20;99.90
4081;DHT22;2055;50.074;8.436;2023-07-13T03:47:17;15.90;99.90
4081;DHT22;2055;50.074;8.436;2023-07-13T03:49:43;15.60;99.90
4081;DHT22;2055;50.074;8.436;2023-07-13T03:52:08;15.70;99.90
4081;DHT22;2055;50.074;8.436;2023-07-13T03:54:34;16.80;99.90
4081;DHT22;2055;50.074;8.436;2023-07-13T03:57:00;15.90;99.90
4081;DHT22;2055;50.074;8.436;2023-07-13T03:59:28;15.70;99.90
4081;DHT22;2055;50.074;8.436;2023-07-13T04:01:54;15.50;99.90
4081;DHT22;2055;50.074;8.436;2023-07-13T04:04:20;16.50;99.90
4081;DHT22;2055;50.074;8.436;2023-07-13T04:06:46;15.90;99.90
4081;DHT22;2055;50.074;8.436;2023-07-13T04:09:11;16.80;99.90
4081;DHT22;2055;50.074;8.436;2023-07-13T04:11:37;16.30;99.90
4081;DHT22;2055;50.074;8.436;2023-07-13T04:14:03;18.20;99.90
4081;DHT22;2055;50.074;8.436;2023-07-13T04:16:29;16.10;99.90
4081;DHT22;2055;50.074;8.436;2023-07-13T04:18:55;17.70;99.90
4081;DHT22;2055;50.074;8.436;2023-07-13T04:21:28;15.80;99.90
4081;DHT22;2055;50.074;8.436;2023-07-13T04:23:54;16.20;99.90
4081;DHT22;2055;50.074;8.436;2023-07-13T04:26:20;18.00;99.90
4081;DHT22;2055;50.074;8.436;2023-07-13T04:28:46;18.40;99.90
4081;DHT22;2055;50.074;8.436;2023-07-13T04:31:12;17.00;99.90
4081;DHT22;2055;50.074;8.436;2023-07-13T04:33:38;16.50;99.90
4081;DHT22;2055;50.074;8.436;2023-07-13T04:36:04;16.50;99.90
4081;DHT22;2055;50.074;8.436;2023-07-13T04:38:31;16.50;99.90
4081;DHT22;2055;50.074;8.436;2023-07-13T04:41:07;16.50;99.90
4081;DHT22;2055;50.074;8.436;2023-07-13T04:43:34;16.60;99.90
4081;DHT22;2055;50.074;8.436;2023-07-13T04:46:08;16.00;99.90
4081;DHT22;2055;50.074;8.436;2023-07-13T04:48:36;16.70;99.90
4081;DHT22;2055;50.074;8.436;2023-07-13T04:51:02;16.70;99.90
4081;DHT22;2055;50.074;8.436;2023-07-13T04:53:28;17.50;99.90
4081;DHT22;2055;50.074;8.436;2023-07-13T04:55:54;16.70;99.90
4081;DHT22;2055;50.074;8.436;2023-07-13T04:58:23;16.90;99.90
4081;DHT22;2055;50.074;8.436;2023-07-13T05:00:49;17.00;99.90
4081;DHT22;2055;50.074;8.436;2023-07-13T05:03:15;17.10;99.90
4081;DHT22;2055;50.074;8.436;2023-07-13T05:05:41;16.80;99.90
4081;DHT22;2055;50.074;8.436;2023-07-13T05:08:07;17.30;99.90
4081;DHT22;2055;50.074;8.436;2023-07-13T05:10:34;17.30;99.90
4081;DHT22;2055;50.074;8.436;2023-07-13T05:13:00;19.60;99.90
4081;DHT22;2055;50.074;8.436;2023-07-13T05:15:26;17.40;99.90
4081;DHT22;2055;50.074;8.436;2023-07-13T05:17:53;17.50;99.90
4081;DHT22;2055;50.074;8.436;2023-07-13T05:20:19;18.90;99.90
4081;DHT22;2055;50.074;8.436;2023-07-13T05:22:44;17.50;99.90
4081;DHT22;2055;50.074;8.436;2023-07-13T05:25:13;17.50;99.90
4081;DHT22;2055;50.074;8.436;2023-07-13T05:27:39;17.60;99.90
4081;DHT22;2055;50.074;8.436;2023-07-13T05:30:05;17.60;99.90
4081;DHT22;2055;50.074;8.436;2023-07-13T05:32:31;17.60;99.90
4081;DHT22;2055;50.074;8.436;2023-07-13T05:34:56;17.60;99.90
4081;DHT22;2055;50.074;8.436;2023-07-13T05:37:22;17.60;99.90
4081;DHT22;2055;50.074;8.436;2023-07-13T05:39:48;17.70;99.90
4081;DHT22;2055;50.074;8.436;2023-07-13T05:42:13;17.70;99.90
4081;DHT22;2055;50.074;8.436;2023-07-13T05:44:40;17.90;99.90
4081;DHT22;2055;50.074;8.436;2023-07-13T05:47:06;18.00;99.90
4081;DHT22;2055;50.074;8.436;2023-07-13T05:49:31;18.10;99.90
4081;DHT22;2055;50.074;8.436;2023-07-13T05:51:57;18.10;99.90
4081;DHT22;2055;50.074;8.436;2023-07-13T05:54:23;18.30;99.90
4081;DHT22;2055;50.074;8.436;2023-07-13T05:56:48;18.80;99.90
4081;DHT22;2055;50.074;8.436;2023-07-13T05:59:14;20.30;99.90
4081;DHT22;2055;50.074;8.436;2023-07-13T06:01:41;20.90;99.90
4081;DHT22;2055;50.074;8.436;2023-07-13T06:04:07;19.20;99.90
4081;DHT22;2055;50.074;8.436;2023-07-13T06:06:33;18.90;99.90
4081;DHT22;2055;50.074;8.436;2023-07-13T06:09:07;19.30;99.90
4081;DHT22;2055;50.074;8.436;2023-07-13T06:11:33;19.20;99.90
4081;DHT22;2055;50.074;8.436;2023-07-13T06:14:00;19.20;99.90
4081;DHT22;2055;50.074;8.436;2023-07-13T06:16:26;18.30;99.90
4081;DHT22;2055;50.074;8.436;2023-07-13T06:18:51;19.60;99.90
4081;DHT22;2055;50.074;8.436;2023-07-13T06:21:19;19.30;99.90
4081;DHT22;2055;50.074;8.436;2023-07-13T06:23:46;19.80;99.90
4081;DHT22;2055;50.074;8.436;2023-07-13T06:26:17;19.50;99.90
4081;DHT22;2055;50.074;8.436;2023-07-13T06:28:42;19.50;99.90
4081;DHT22;2055;50.074;8.436;2023-07-13T06:31:10;19.60;99.90
4081;DHT22;2055;50.074;8.436;2023-07-13T06:33:37;19.70;99.90
4081;DHT22;2055;50.074;8.436;2023-07-13T06:36:04;19.90;99.90
4081;DHT22;2055;50.074;8.436;2023-07-13T06:38:30;20.00;99.90
4081;DHT22;2055;50.074;8.436;2023-07-13T06:40:56;19.80;99.90
4081;DHT22;2055;50.074;8.436;2023-07-13T06:43:25;20.00;99.90
4081;DHT22;2055;50.074;8.436;2023-07-13T06:45:53;20.00;99.90
4081;DHT22;2055;50.074;8.436;2023-07-13T06:48:20;20.00;99.90
4081;DHT22;2055;50.074;8.436;2023-07-13T06:50:47;20.10;99.90
4081;DHT22;2055;50.074;8.436;2023-07-13T06:53:13;20.20;99.90
4081;DHT22;2055;50.074;8.436;2023-07-13T06:55:44;20.10;99.90
4081;DHT22;2055;50.074;8.436;2023-07-13T06:58:14;20.40;99.90
4081;DHT22;2055;50.074;8.436;2023-07-13T07:00:40;20.40;99.90
4081;DHT22;2055;50.074;8.436;2023-07-13T07:03:06;20.40;99.90
4081;DHT22;2055;50.074;8.436;2023-07-13T07:05:31;20.40;99.90
4081;DHT22;2055;50.074;8.436;2023-07-13T07:07:57;20.30;99.90
4081;DHT22;2055;50.074;8.436;2023-07-13T07:10:23;21.70;99.90
4081;DHT22;2055;50.074;8.436;2023-07-13T07:12:51;20.20;99.90
4081;DHT22;2055;50.074;8.436;2023-07-13T07:15:18;20.90;99.90
4081;DHT22;2055;50.074;8.436;2023-07-13T07:17:46;20.80;99.90
4081;DHT22;2055;50.074;8.436;2023-07-13T07:20:12;20.70;99.90
4081;DHT22;2055;50.074;8.436;2023-07-13T07:22:38;21.20;99.90
4081;DHT22;2055;50.074;8.436;2023-07-13T07:25:04;21.00;99.90
4081;DHT22;2055;50.074;8.436;2023-07-13T07:27:30;21.00;99.90
4081;DHT22;2055;50.074;8.436;2023-07-13T07:29:55;22.80;99.90
4081;DHT22;2055;50.074;8.436;2023-07-13T07:32:23;22.20;99.90
4081;DHT22;2055;50.074;8.436;2023-07-13T07:34:48;21.30;99.90
4081;DHT22;2055;50.074;8.436;2023-07-13T07:37:14;20.90;99.90
4081;DHT22;2055;50.074;8.436;2023-07-13T07:39:40;21.10;99.90
4081;DHT22;2055;50.074;8.436;2023-07-13T07:42:06;21.70;99.90
4081;DHT22;2055;50.074;8.436;2023-07-13T07:44:32;21.80;99.90
4081;DHT22;2055;50.074;8.436;2023-07-13T07:47:01;21.30;99.90
4081;DHT22;2055;50.074;8.436;2023-07-13T07:49:27;21.60;99.90
4081;DHT22;2055;50.074;8.436;2023-07-13T07:51:52;21.50;99.90
4081;DHT22;2055;50.074;8.436;2023-07-13T07:54:18;22.00;99.90
4081;DHT22;2055;50.074;8.436;2023-07-13T07:56:44;22.70;99.90
4081;DHT22;2055;50.074;8.436;2023-07-13T07:59:10;21.80;99.90
4081;DHT22;2055;50.074;8.436;2023-07-13T08:01:38;21.60;99.90
4081;DHT22;2055;50.074;8.436;2023-07-13T08:04:07;21.10;99.90
4081;DHT22;2055;50.074;8.436;2023-07-13T08:06:33;21.60;99.90
4081;DHT22;2055;50.074;8.436;2023-07-13T08:08:59;21.80;99.90
4081;DHT22;2055;50.074;8.436;2023-07-13T08:11:25;22.10;99.90
4081;DHT22;2055;50.074;8.436;2023-07-13T08:13:53;22.20;99.90
4081;DHT22;2055;50.074;8.436;2023-07-13T08:16:19;22.10;99.90
4081;DHT22;2055;50.074;8.436;2023-07-13T08:18:44;22.40;99.90
4081;DHT22;2055;50.074;8.436;2023-07-13T08:21:10;22.30;99.90
4081;DHT22;2055;50.074;8.436;2023-07-13T08:23:36;22.10;99.90
4081;DHT22;2055;50.074;8.436;2023-07-13T08:26:02;22.30;99.90
4081;DHT22;2055;50.074;8.436;2023-07-13T08:28:29;22.50;99.90
4081;DHT22;2055;50.074;8.436;2023-07-13T08:30:54;22.50;99.90
4081;DHT22;2055;50.074;8.436;2023-07-13T08:33:21;22.60;99.90
4081;DHT22;2055;50.074;8.436;2023-07-13T08:35:49;22.50;99.90
4081;DHT22;2055;50.074;8.436;2023-07-13T08:38:16;22.70;99.90
4081;DHT22;2055;50.074;8.436;2023-07-13T08:40:51;22.70;99.90
4081;DHT22;2055;50.074;8.436;2023-07-13T08:43:20;23.30;99.90
4081;DHT22;2055;50.074;8.436;2023-07-13T08:46:11;22.80;99.90
4081;DHT22;2055;50.074;8.436;2023-07-13T08:48:52;22.70;99.90
4081;DHT22;2055;50.074;8.436;2023-07-13T08:51:37;22.90;99.90
4081;DHT22;2055;50.074;8.436;2023-07-13T08:54:32;22.80;99.90
4081;DHT22;2055;50.074;8.436;2023-07-13T08:57:26;23.10;99.90
4081;DHT22;2055;50.074;8.436;2023-07-13T08:59:49;22.80;99.90
4081;DHT22;2055;50.074;8.436;2023-07-13T09:05:17;22.90;99.90
4081;DHT22;2055;50.074;8.436;2023-07-13T09:10:41;23.20;99.90
4081;DHT22;2055;50.074;8.436;2023-07-13T09:13:39;23.30;99.90
4081;DHT22;2055;50.074;8.436;2023-07-13T09:16:06;23.40;99.90
4081;DHT22;2055;50.074;8.436;2023-07-13T09:18:40;23.60;99.90
4081;DHT22;2055;50.074;8.436;2023-07-13T09:21:18;23.70;99.90
4081;DHT22;2055;50.074;8.436;2023-07-13T09:23:47;23.60;99.90
4081;DHT22;2055;50.074;8.436;2023-07-13T09:26:19;23.50;99.90
4081;DHT22;2055;50.074;8.436;2023-07-13T09:28:48;23.40;99.90
4081;DHT22;2055;50.074;8.436;2023-07-13T09:31:17;23.60;99.70
4081;DHT22;2055;50.074;8.436;2023-07-13T09:33:45;23.90;99.90
4081;DHT22;2055;50.074;8.436;2023-07-13T09:36:32;23.90;98.50
4081;DHT22;2055;50.074;8.436;2023-07-13T09:39:00;24.60;99.50
4081;DHT22;2055;50.074;8.436;2023-07-13T09:44:34;24.00;98.50
4081;DHT22;2055;50.074;8.436;2023-07-13T09:47:01;23.80;99.30
4081;DHT22;2055;50.074;8.436;2023-07-13T09:49:31;23.90;99.20
4081;DHT22;2055;50.074;8.436;2023-07-13T09:52:01;24.00;98.50
4081;DHT22;2055;50.074;8.436;2023-07-13T09:54:27;24.30;98.30
4081;DHT22;2055;50.074;8.436;2023-07-13T09:56:58;24.50;98.10
4081;DHT22;2055;50.074;8.436;2023-07-13T09:59:30;24.30;98.00
4081;DHT22;2055;50.074;8.436;2023-07-13T10:01:56;24.40;97.60
4081;DHT22;2055;50.074;8.436;2023-07-13T10:04:33;25.90;99.10
4081;DHT22;2055;50.074;8.436;2023-07-13T10:07:12;24.70;98.40
4081;DHT22;2055;50.074;8.436;2023-07-13T10:09:41;25.30;98.00
4081;DHT22;2055;50.074;8.436;2023-07-13T10:12:14;24.60;98.00
4081;DHT22;2055;50.074;8.436;2023-07-13T10:14:44;24.30;97.50
4081;DHT22;2055;50.074;8.436;2023-07-13T10:17:13;24.30;97.40
4081;DHT22;2055;50.074;8.436;2023-07-13T10:19:41;25.00;97.10
4081;DHT22;2055;50.074;8.436;2023-07-13T10:24:52;25.10;97.00
4081;DHT22;2055;50.074;8.436;2023-07-13T10:27:26;24.80;96.90
4081;DHT22;2055;50.074;8.436;2023-07-13T10:30:02;25.00;97.30
4081;DHT22;2055;50.074;8.436;2023-07-13T10:32:30;25.30;97.30
4081;DHT22;2055;50.074;8.436;2023-07-13T10:34:56;25.50;97.40
4081;DHT22;2055;50.074;8.436;2023-07-13T10:37:29;26.00;97.60
4081;DHT22;2055;50.074;8.436;2023-07-13T10:39:57;27.10;95.70
4081;DHT22;2055;50.074;8.436;2023-07-13T10:42:33;25.80;95.20
4081;DHT22;2055;50.074;8.436;2023-07-13T10:45:00;25.50;93.50
4081;DHT22;2055;50.074;8.436;2023-07-13T10:47:26;25.00;93.60
4081;DHT22;2055;50.074;8.436;2023-07-13T10:49:58;25.10;94.10
4081;DHT22;2055;50.074;8.436;2023-07-13T10:55:40;25.00;92.70
4081;DHT22;2055;50.074;8.436;2023-07-13T10:58:42;25.70;92.00
4081;DHT22;2055;50.074;8.436;2023-07-13T11:01:16;26.10;92.50
4081;DHT22;2055;50.074;8.436;2023-07-13T11:03:59;26.30;91.90
4081;DHT22;2055;50.074;8.436;2023-07-13T11:08:56;25.80;92.50
4081;DHT22;2055;50.074;8.436;2023-07-13T11:18:49;26.00;89.60
4081;DHT22;2055;50.074;8.436;2023-07-13T11:21:18;26.10;90.50
4081;DHT22;2055;50.074;8.436;2023-07-13T11:23:52;26.20;90.30
4081;DHT22;2055;50.074;8.436;2023-07-13T11:31:50;26.30;88.80
4081;DHT22;2055;50.074;8.436;2023-07-13T11:34:21;26.70;90.70
4081;DHT22;2055;50.074;8.436;2023-07-13T11:36:49;27.60;90.70
4081;DHT22;2055;50.074;8.436;2023-07-13T11:39:36;27.10;88.80
4081;DHT22;2055;50.074;8.436;2023-07-13T11:42:05;26.90;87.60
4081;DHT22;2055;50.074;8.436;2023-07-13T11:44:35;26.70;86.20
4081;DHT22;2055;50.074;8.436;2023-07-13T11:47:14;27.10;87.40
4081;DHT22;2055;50.074;8.436;2023-07-13T11:49:45;27.90;86.40
4081;DHT22;2055;50.074;8.436;2023-07-13T11:55:18;27.80;85.90
4081;DHT22;2055;50.074;8.436;2023-07-13T11:57:59;27.30;83.30
4081;DHT22;2055;50.074;8.436;2023-07-13T12:00:28;27.20;83.90
4081;DHT22;2055;50.074;8.436;2023-07-13T12:02:57;26.80;83.50
4081;DHT22;2055;50.074;8.436;2023-07-13T12:05:28;27.10;82.90
4081;DHT22;2055;50.074;8.436;2023-07-13T12:07:54;27.60;85.50
4081;DHT22;2055;50.074;8.436;2023-07-13T12:10:25;27.60;80.90
4081;DHT22;2055;50.074;8.436;2023-07-13T12:13:00;27.30;81.60
4081;DHT22;2055;50.074;8.436;2023-07-13T12:15:45;27.10;82.60
4081;DHT22;2055;50.074;8.436;2023-07-13T12:18:22;27.50;84.70
4081;DHT22;2055;50.074;8.436;2023-07-13T12:20:50;26.90;79.70
4081;DHT22;2055;50.074;8.436;2023-07-13T12:23:30;27.00;83.30
4081;DHT22;2055;50.074;8.436;2023-07-13T12:25:57;28.10;82.20
4081;DHT22;2055;50.074;8.436;2023-07-13T12:28:45;26.90;81.50
4081;DHT22;2055;50.074;8.436;2023-07-13T12:31:26;27.30;83.10
4081;DHT22;2055;50.074;8.436;2023-07-13T12:34:01;26.50;80.80
4081;DHT22;2055;50.074;8.436;2023-07-13T12:36:30;25.90;80.80
4081;DHT22;2055;50.074;8.436;2023-07-13T12:39:00;26.20;82.90
4081;DHT22;2055;50.074;8.436;2023-07-13T12:41:29;27.10;82.00
4081;DHT22;2055;50.074;8.436;2023-07-13T12:43:55;27.80;81.60
4081;DHT22;2055;50.074;8.436;2023-07-13T12:46:24;28.00;82.50
4081;DHT22;2055;50.074;8.436;2023-07-13T12:48:52;28.00;80.20
4081;DHT22;2055;50.074;8.436;2023-07-13T12:51:22;27.40;79.60
4081;DHT22;2055;50.074;8.436;2023-07-13T12:53:51;27.40;80.60
4081;DHT22;2055;50.074;8.436;2023-07-13T12:56:22;28.00;81.00
4081;DHT22;2055;50.074;8.436;2023-07-13T12:58:49;27.00;79.90
4081;DHT22;2055;50.074;8.436;2023-07-13T13:01:21;26.40;82.50
4081;DHT22;2055;50.074;8.436;2023-07-13T13:03:52;26.70;82.20
4081;DHT22;2055;50.074;8.436;2023-07-13T13:08:55;25.60;82.20
4081;DHT22;2055;50.074;8.436;2023-07-13T13:11:23;25.20;84.00
4081;DHT22;2055;50.074;8.436;2023-07-13T13:13:49;25.20;83.10
4081;DHT22;2055;50.074;8.436;2023-07-13T13:16:44;25.40;84.20
4081;DHT22;2055;50.074;8.436;2023-07-13T13:19:20;25.20;84.00
4081;DHT22;2055;50.074;8.436;2023-07-13T13:21:47;25.10;84.70
4081;DHT22;2055;50.074;8.436;2023-07-13T13:24:18;25.40;84.10
4081;DHT22;2055;50.074;8.436;2023-07-13T13:26:46;25.30;85.10
4081;DHT22;2055;50.074;8.436;2023-07-13T13:29:14;25.50;86.10
4081;DHT22;2055;50.074;8.436;2023-07-13T13:31:42;25.40;84.90
4081;DHT22;2055;50.074;8.436;2023-07-13T13:34:12;25.30;84.60
4081;DHT22;2055;50.074;8.436;2023-07-13T13:36:39;25.50;86.10
4081;DHT22;2055;50.074;8.436;2023-07-13T13:39:18;25.20;85.60
4081;DHT22;2055;50.074;8.436;2023-07-13T13:41:45;25.00;84.80
4081;DHT22;2055;50.074;8.436;2023-07-13T13:44:16;25.20;84.30
4081;DHT22;2055;50.074;8.436;2023-07-13T13:46:44;25.50;86.10
4081;DHT22;2055;50.074;8.436;2023-07-13T13:49:16;25.40;85.00
4081;DHT22;2055;50.074;8.436;2023-07-13T13:51:43;25.20;85.60
4081;DHT22;2055;50.074;8.436;2023-07-13T13:54:12;24.90;84.70
4081;DHT22;2055;50.074;8.436;2023-07-13T13:56:38;24.50;85.50
4081;DHT22;2055;50.074;8.436;2023-07-13T13:59:04;24.40;85.20
4081;DHT22;2055;50.074;8.436;2023-07-13T14:01:31;24.50;86.70
4081;DHT22;2055;50.074;8.436;2023-07-13T14:03:56;24.30;85.70
4081;DHT22;2055;50.074;8.436;2023-07-13T14:06:22;24.30;86.00
4081;DHT22;2055;50.074;8.436;2023-07-13T14:08:48;24.50;88.50
4081;DHT22;2055;50.074;8.436;2023-07-13T14:11:16;24.40;88.30
4081;DHT22;2055;50.074;8.436;2023-07-13T14:13:48;24.60;88.00
4081;DHT22;2055;50.074;8.436;2023-07-13T14:16:17;24.40;87.70
4081;DHT22;2055;50.074;8.436;2023-07-13T14:18:47;24.10;88.80
4081;DHT22;2055;50.074;8.436;2023-07-13T14:21:19;24.10;89.60
4081;DHT22;2055;50.074;8.436;2023-07-13T14:23:46;24.40;89.50
4081;DHT22;2055;50.074;8.436;2023-07-13T14:26:15;24.40;89.80
4081;DHT22;2055;50.074;8.436;2023-07-13T14:28:43;24.30;90.00
4081;DHT22;2055;50.074;8.436;2023-07-13T14:31:11;24.60;90.20
4081;DHT22;2055;50.074;8.436;2023-07-13T14:33:37;24.40;90.50
4081;DHT22;2055;50.074;8.436;2023-07-13T14:36:21;24.20;89.00
4081;DHT22;2055;50.074;8.436;2023-07-13T14:38:48;24.10;89.00
4081;DHT22;2055;50.074;8.436;2023-07-13T14:41:14;23.80;89.10
4081;DHT22;2055;50.074;8.436;2023-07-13T14:43:39;23.80;90.20
4081;DHT22;2055;50.074;8.436;2023-07-13T14:46:05;23.90;90.70
4081;DHT22;2055;50.074;8.436;2023-07-13T14:48:32;23.90;91.40
4081;DHT22;2055;50.074;8.436;2023-07-13T14:50:58;25.30;91.70
4081;DHT22;2055;50.074;8.436;2023-07-13T14:53:26;23.90;90.90
4081;DHT22;2055;50.074;8.436;2023-07-13T14:55:54;24.10;90.90
4081;DHT22;2055;50.074;8.436;2023-07-13T14:58:20;24.40;90.70
4081;DHT22;2055;50.074;8.436;2023-07-13T15:00:46;24.50;91.10
4081;DHT22;2055;50.074;8.436;2023-07-13T15:03:24;24.80;91.40
4081;DHT22;2055;50.074;8.436;2023-07-13T15:05:51;25.00;90.30
4081;DHT22;2055;50.074;8.436;2023-07-13T15:08:18;24.50;89.30
4081;DHT22;2055;50.074;8.436;2023-07-13T15:10:44;24.20;89.30
4081;DHT22;2055;50.074;8.436;2023-07-13T15:13:16;24.10;88.10
4081;DHT22;2055;50.074;8.436;2023-07-13T15:15:45;24.30;90.20
4081;DHT22;2055;50.074;8.436;2023-07-13T15:18:12;24.60;88.70
4081;DHT22;2055;50.074;8.436;2023-07-13T15:20:38;24.50;89.60
4081;DHT22;2055;50.074;8.436;2023-07-13T15:23:04;24.80;88.20
4081;DHT22;2055;50.074;8.436;2023-07-13T15:25:32;24.50;89.20
4081;DHT22;2055;50.074;8.436;2023-07-13T15:27:59;24.60;87.70
4081;DHT22;2055;50.074;8.436;2023-07-13T15:30:27;24.50;88.10
4081;DHT22;2055;50.074;8.436;2023-07-13T15:33:00;24.70;87.60
4081;DHT22;2055;50.074;8.436;2023-07-13T15:35:33;24.60;86.50
4081;DHT22;2055;50.074;8.436;2023-07-13T15:37:59;24.30;88.10
4081;DHT22;2055;50.074;8.436;2023-07-13T15:40:24;24.70;88.80
4081;DHT22;2055;50.074;8.436;2023-07-13T15:42:50;24.60;87.30
4081;DHT22;2055;50.074;8.436;2023-07-13T15:45:21;24.80;87.70
4081;DHT22;2055;50.074;8.436;2023-07-13T15:47:50;25.40;88.40
4081;DHT22;2055;50.074;8.436;2023-07-13T15:50:22;25.30;86.00
4081;DHT22;2055;50.074;8.436;2023-07-13T15:52:52;26.00;85.60
4081;DHT22;2055;50.074;8.436;2023-07-13T15:55:18;26.70;85.30
4081;DHT22;2055;50.074;8.436;2023-07-13T15:57:52;26.60;84.80
4081;DHT22;2055;50.074;8.436;2023-07-13T16:00:21;26.20;82.60
4081;DHT22;2055;50.074;8.436;2023-07-13T16:02:48;25.80;84.20
4081;DHT22;2055;50.074;8.436;2023-07-13T16:05:16;25.10;84.40
4081;DHT22;2055;50.074;8.436;2023-07-13T16:07:44;25.10;84.80
4081;DHT22;2055;50.074;8.436;2023-07-13T16:10:20;26.20;85.20
4081;DHT22;2055;50.074;8.436;2023-07-13T16:12:46;26.80;84.00
4081;DHT22;2055;50.074;8.436;2023-07-13T16:15:17;26.70;81.90
4081;DHT22;2055;50.074;8.436;2023-07-13T16:17:45;28.30;86.10
4081;DHT22;2055;50.074;8.436;2023-07-13T16:20:15;26.10;83.40
4081;DHT22;2055;50.074;8.436;2023-07-13T16:22:46;26.60;84.50
4081;DHT22;2055;50.074;8.436;2023-07-13T16:25:19;27.20;83.00
4081;DHT22;2055;50.074;8.436;2023-07-13T16:27:48;27.20;82.80
4081;DHT22;2055;50.074;8.436;2023-07-13T16:30:19;28.10;81.20
4081;DHT22;2055;50.074;8.436;2023-07-13T16:33:00;28.50;78.90
4081;DHT22;2055;50.074;8.436;2023-07-13T16:35:37;28.30;79.10
4081;DHT22;2055;50.074;8.436;2023-07-13T16:38:04;27.90;78.60
4081;DHT22;2055;50.074;8.436;2023-07-13T16:40:34;27.30;78.50
4081;DHT22;2055;50.074;8.436;2023-07-13T16:43:04;26.40;77.10
4081;DHT22;2055;50.074;8.436;2023-07-13T16:45:32;26.60;77.90
4081;DHT22;2055;50.074;8.436;2023-07-13T16:48:02;26.30;79.90